KSUW/SUW METAR and TAF weather

Enter ICAO airport designator
Station Type Date Time Source
KSUW METAR 2020/06/06 00:15 UTC NOAA

KSUW 060015Z AUTO 33009G18KT 10SM SCT070 22/07 A2994 RMK AO2 T02210072


Station Type Date Time Source
KSUW Decoded METAR 2020/06/06 00:15 UTC NOAA

Superior, Richard I. Bong Airport, WI, United States (KSUW) 46-41-23N 092-05-41W
Jun 05, 2020 - 08:15 PM EDT / 2020.06.06 0015 UTC
Wind: from the NNW (330 degrees) at 10 MPH (9 KT) gusting to 21 MPH (18 KT):0
Visibility: 10 mile(s):0
Sky conditions: partly cloudy
Temperature: 71.8 F (22.1 C)
Dew Point: 45.0 F (7.2 C)
Relative Humidity: 38%
Pressure (altimeter): 29.94 in. Hg (1013 hPa)
ob: KSUW 060015Z AUTO 33009G18KT 10SM SCT070 22/07 A2994 RMK AO2 T02210072
cycle: 0

Station Type Date Time Source
KSUW TAF UTC NOAA

Error!

Example: see airport list